sensor_id;sensor_type;location;lat;lon;timestamp;temperature;humidity
19680;DHT22;9989;48.962;9.182;2022-10-28T00:00:14;16.10;99.90
19680;DHT22;9989;48.962;9.182;2022-10-28T00:02:39;16.10;99.90
19680;DHT22;9989;48.962;9.182;2022-10-28T00:05:05;16.10;99.90
19680;DHT22;9989;48.962;9.182;2022-10-28T00:07:31;16.10;99.90
19680;DHT22;9989;48.962;9.182;2022-10-28T00:09:57;16.00;99.90
19680;DHT22;9989;48.962;9.182;2022-10-28T00:12:22;16.00;99.90
19680;DHT22;9989;48.962;9.182;2022-10-28T00:14:48;16.00;99.90
19680;DHT22;9989;48.962;9.182;2022-10-28T00:17:13;15.90;99.90
19680;DHT22;9989;48.962;9.182;2022-10-28T00:19:39;15.90;99.90
19680;DHT22;9989;48.962;9.182;2022-10-28T00:22:04;15.90;99.90
19680;DHT22;9989;48.962;9.182;2022-10-28T00:24:30;15.80;99.90
19680;DHT22;9989;48.962;9.182;2022-10-28T00:26:55;15.80;99.90
19680;DHT22;9989;48.962;9.182;2022-10-28T00:29:21;15.80;99.90
19680;DHT22;9989;48.962;9.182;2022-10-28T00:31:48;15.70;99.90
19680;DHT22;9989;48.962;9.182;2022-10-28T00:34:19;15.70;99.90
19680;DHT22;9989;48.962;9.182;2022-10-28T00:36:48;15.70;99.90
19680;DHT22;9989;48.962;9.182;2022-10-28T00:39:18;15.70;99.90
19680;DHT22;9989;48.962;9.182;2022-10-28T00:41:46;15.70;99.90
19680;DHT22;9989;48.962;9.182;2022-10-28T00:52:38;15.80;99.90
19680;DHT22;9989;48.962;9.182;2022-10-28T00:55:06;15.80;99.90
19680;DHT22;9989;48.962;9.182;2022-10-28T00:57:34;15.80;99.90
19680;DHT22;9989;48.962;9.182;2022-10-28T01:00:05;15.80;99.90
19680;DHT22;9989;48.962;9.182;2022-10-28T01:02:36;15.80;99.90
19680;DHT22;9989;48.962;9.182;2022-10-28T01:05:06;15.70;99.90
19680;DHT22;9989;48.962;9.182;2022-10-28T01:07:32;15.80;99.90
19680;DHT22;9989;48.962;9.182;2022-10-28T01:09:57;15.70;99.90
19680;DHT22;9989;48.962;9.182;2022-10-28T01:15:26;15.70;99.90
19680;DHT22;9989;48.962;9.182;2022-10-28T01:18:29;15.70;99.90
19680;DHT22;9989;48.962;9.182;2022-10-28T01:24:09;15.70;99.90
19680;DHT22;9989;48.962;9.182;2022-10-28T01:30:27;15.70;99.90
19680;DHT22;9989;48.962;9.182;2022-10-28T01:35:53;15.70;99.90
19680;DHT22;9989;48.962;9.182;2022-10-28T01:38:35;15.70;99.90
19680;DHT22;9989;48.962;9.182;2022-10-28T01:41:28;15.60;99.90
19680;DHT22;9989;48.962;9.182;2022-10-28T01:49:15;15.60;99.90
19680;DHT22;9989;48.962;9.182;2022-10-28T01:51:47;15.60;99.90
19680;DHT22;9989;48.962;9.182;2022-10-28T01:54:18;15.50;99.90
19680;DHT22;9989;48.962;9.182;2022-10-28T01:56:47;15.50;99.90
19680;DHT22;9989;48.962;9.182;2022-10-28T01:59:19;15.50;99.90
19680;DHT22;9989;48.962;9.182;2022-10-28T02:01:45;15.40;99.90
19680;DHT22;9989;48.962;9.182;2022-10-28T02:04:11;15.40;99.90
19680;DHT22;9989;48.962;9.182;2022-10-28T02:06:38;15.40;99.90
19680;DHT22;9989;48.962;9.182;2022-10-28T02:09:23;15.40;99.90
19680;DHT22;9989;48.962;9.182;2022-10-28T02:14:37;15.30;99.90
19680;DHT22;9989;48.962;9.182;2022-10-28T02:20:13;15.30;99.90
19680;DHT22;9989;48.962;9.182;2022-10-28T02:22:51;15.20;99.90
19680;DHT22;9989;48.962;9.182;2022-10-28T02:25:25;15.20;99.90
19680;DHT22;9989;48.962;9.182;2022-10-28T02:27:59;15.10;99.90
19680;DHT22;9989;48.962;9.182;2022-10-28T02:30:37;15.10;99.90
19680;DHT22;9989;48.962;9.182;2022-10-28T02:33:09;15.00;99.90
19680;DHT22;9989;48.962;9.182;2022-10-28T02:38:16;15.00;99.90
19680;DHT22;9989;48.962;9.182;2022-10-28T02:40:46;14.90;99.90
19680;DHT22;9989;48.962;9.182;2022-10-28T02:43:16;15.00;99.90
19680;DHT22;9989;48.962;9.182;2022-10-28T02:45:46;14.90;99.90
19680;DHT22;9989;48.962;9.182;2022-10-28T02:48:37;14.90;99.90
19680;DHT22;9989;48.962;9.182;2022-10-28T02:51:20;14.90;99.90
19680;DHT22;9989;48.962;9.182;2022-10-28T02:56:26;14.90;99.90
19680;DHT22;9989;48.962;9.182;2022-10-28T02:58:53;14.90;99.90
19680;DHT22;9989;48.962;9.182;2022-10-28T03:01:18;14.90;99.90
19680;DHT22;9989;48.962;9.182;2022-10-28T03:03:44;14.90;99.90
19680;DHT22;9989;48.962;9.182;2022-10-28T03:06:13;14.90;99.90
19680;DHT22;9989;48.962;9.182;2022-10-28T03:08:38;14.90;99.90
19680;DHT22;9989;48.962;9.182;2022-10-28T03:11:04;14.90;99.90
19680;DHT22;9989;48.962;9.182;2022-10-28T03:13:30;14.80;99.90
19680;DHT22;9989;48.962;9.182;2022-10-28T03:15:55;14.80;99.90
19680;DHT22;9989;48.962;9.182;2022-10-28T03:18:21;14.90;99.90
19680;DHT22;9989;48.962;9.182;2022-10-28T03:20:46;14.90;99.90
19680;DHT22;9989;48.962;9.182;2022-10-28T03:23:12;14.90;99.90
19680;DHT22;9989;48.962;9.182;2022-10-28T03:25:37;14.90;99.90
19680;DHT22;9989;48.962;9.182;2022-10-28T03:28:03;14.90;99.90
19680;DHT22;9989;48.962;9.182;2022-10-28T03:30:29;14.90;99.90
19680;DHT22;9989;48.962;9.182;2022-10-28T03:32:54;15.00;99.90
19680;DHT22;9989;48.962;9.182;2022-10-28T03:35:20;15.00;99.90
19680;DHT22;9989;48.962;9.182;2022-10-28T03:37:45;15.00;99.90
19680;DHT22;9989;48.962;9.182;2022-10-28T03:40:11;15.00;99.90
19680;DHT22;9989;48.962;9.182;2022-10-28T03:42:39;15.00;99.90
19680;DHT22;9989;48.962;9.182;2022-10-28T03:45:06;15.10;99.90
19680;DHT22;9989;48.962;9.182;2022-10-28T03:47:33;15.10;99.90
19680;DHT22;9989;48.962;9.182;2022-10-28T03:49:59;15.10;99.90
19680;DHT22;9989;48.962;9.182;2022-10-28T03:52:25;15.20;99.90
19680;DHT22;9989;48.962;9.182;2022-10-28T03:54:50;15.20;99.90
19680;DHT22;9989;48.962;9.182;2022-10-28T03:57:16;15.30;99.90
19680;DHT22;9989;48.962;9.182;2022-10-28T03:59:41;15.30;99.90
19680;DHT22;9989;48.962;9.182;2022-10-28T04:02:07;15.30;99.90
19680;DHT22;9989;48.962;9.182;2022-10-28T04:04:32;15.40;99.90
19680;DHT22;9989;48.962;9.182;2022-10-28T04:06:58;15.40;99.90
19680;DHT22;9989;48.962;9.182;2022-10-28T04:09:24;15.40;99.90
19680;DHT22;9989;48.962;9.182;2022-10-28T04:11:49;15.40;99.90
19680;DHT22;9989;48.962;9.182;2022-10-28T04:14:15;15.40;99.90
19680;DHT22;9989;48.962;9.182;2022-10-28T04:16:40;15.40;99.90
19680;DHT22;9989;48.962;9.182;2022-10-28T04:19:06;15.40;99.90
19680;DHT22;9989;48.962;9.182;2022-10-28T04:21:32;15.40;99.90
19680;DHT22;9989;48.962;9.182;2022-10-28T04:23:57;15.40;99.90
19680;DHT22;9989;48.962;9.182;2022-10-28T04:26:23;15.40;99.90
19680;DHT22;9989;48.962;9.182;2022-10-28T04:28:49;15.40;99.90
19680;DHT22;9989;48.962;9.182;2022-10-28T04:31:14;15.40;99.90
19680;DHT22;9989;48.962;9.182;2022-10-28T04:33:40;15.40;99.90
19680;DHT22;9989;48.962;9.182;2022-10-28T04:36:06;15.40;99.90
19680;DHT22;9989;48.962;9.182;2022-10-28T04:38:31;15.40;99.90
19680;DHT22;9989;48.962;9.182;2022-10-28T04:40:57;15.40;99.90
19680;DHT22;9989;48.962;9.182;2022-10-28T04:43:23;15.50;99.90
19680;DHT22;9989;48.962;9.182;2022-10-28T04:45:48;15.50;99.90
19680;DHT22;9989;48.962;9.182;2022-10-28T04:48:14;15.50;99.90
19680;DHT22;9989;48.962;9.182;2022-10-28T04:50:39;15.50;99.90
19680;DHT22;9989;48.962;9.182;2022-10-28T04:53:05;15.50;99.90
19680;DHT22;9989;48.962;9.182;2022-10-28T04:55:31;15.50;99.90
19680;DHT22;9989;48.962;9.182;2022-10-28T04:57:58;15.50;99.90
19680;DHT22;9989;48.962;9.182;2022-10-28T05:00:24;15.60;99.90
19680;DHT22;9989;48.962;9.182;2022-10-28T05:02:50;15.60;99.90
19680;DHT22;9989;48.962;9.182;2022-10-28T05:05:16;15.70;99.90
19680;DHT22;9989;48.962;9.182;2022-10-28T05:07:42;15.60;99.90
19680;DHT22;9989;48.962;9.182;2022-10-28T05:10:08;15.70;99.90
19680;DHT22;9989;48.962;9.182;2022-10-28T05:12:34;15.70;99.90
19680;DHT22;9989;48.962;9.182;2022-10-28T05:14:59;15.70;99.90
19680;DHT22;9989;48.962;9.182;2022-10-28T05:17:25;15.70;99.90
19680;DHT22;9989;48.962;9.182;2022-10-28T05:19:50;15.70;99.90
19680;DHT22;9989;48.962;9.182;2022-10-28T05:22:16;15.60;99.90
19680;DHT22;9989;48.962;9.182;2022-10-28T05:24:41;15.60;99.90
19680;DHT22;9989;48.962;9.182;2022-10-28T05:27:07;15.60;99.90
19680;DHT22;9989;48.962;9.182;2022-10-28T05:29:32;15.50;99.90
19680;DHT22;9989;48.962;9.182;2022-10-28T05:31:58;15.50;99.90
19680;DHT22;9989;48.962;9.182;2022-10-28T05:34:24;15.50;99.90
19680;DHT22;9989;48.962;9.182;2022-10-28T05:36:49;15.50;99.90
19680;DHT22;9989;48.962;9.182;2022-10-28T05:39:16;15.50;99.90
19680;DHT22;9989;48.962;9.182;2022-10-28T05:41:42;15.50;99.90
19680;DHT22;9989;48.962;9.182;2022-10-28T05:44:07;15.40;99.90
19680;DHT22;9989;48.962;9.182;2022-10-28T05:46:33;15.40;99.90
19680;DHT22;9989;48.962;9.182;2022-10-28T05:48:58;15.40;99.90
19680;DHT22;9989;48.962;9.182;2022-10-28T05:51:24;15.40;99.90
19680;DHT22;9989;48.962;9.182;2022-10-28T05:53:49;15.40;99.90
19680;DHT22;9989;48.962;9.182;2022-10-28T05:56:18;15.40;99.90
19680;DHT22;9989;48.962;9.182;2022-10-28T05:58:44;15.40;99.90
19680;DHT22;9989;48.962;9.182;2022-10-28T06:01:10;15.40;99.90
19680;DHT22;9989;48.962;9.182;2022-10-28T06:03:35;15.30;99.90
19680;DHT22;9989;48.962;9.182;2022-10-28T06:06:01;15.30;99.90
19680;DHT22;9989;48.962;9.182;2022-10-28T06:08:26;15.30;99.90
19680;DHT22;9989;48.962;9.182;2022-10-28T06:10:53;15.30;99.90
19680;DHT22;9989;48.962;9.182;2022-10-28T06:13:19;15.40;99.90
19680;DHT22;9989;48.962;9.182;2022-10-28T06:15:53;15.30;99.90
19680;DHT22;9989;48.962;9.182;2022-10-28T06:18:19;15.40;99.90
19680;DHT22;9989;48.962;9.182;2022-10-28T06:20:51;15.30;99.90
19680;DHT22;9989;48.962;9.182;2022-10-28T06:23:17;15.30;99.90
19680;DHT22;9989;48.962;9.182;2022-10-28T06:25:43;15.30;99.90
19680;DHT22;9989;48.962;9.182;2022-10-28T06:28:08;15.30;99.90
19680;DHT22;9989;48.962;9.182;2022-10-28T06:30:34;15.30;99.90
19680;DHT22;9989;48.962;9.182;2022-10-28T06:33:00;15.40;99.90
19680;DHT22;9989;48.962;9.182;2022-10-28T06:35:28;15.40;99.90
19680;DHT22;9989;48.962;9.182;2022-10-28T06:37:57;15.40;99.90
19680;DHT22;9989;48.962;9.182;2022-10-28T06:40:24;15.40;99.90
19680;DHT22;9989;48.962;9.182;2022-10-28T06:43:00;15.40;99.90
19680;DHT22;9989;48.962;9.182;2022-10-28T06:45:31;15.40;99.90
19680;DHT22;9989;48.962;9.182;2022-10-28T06:48:03;15.40;99.90
19680;DHT22;9989;48.962;9.182;2022-10-28T06:50:29;15.40;99.90
19680;DHT22;9989;48.962;9.182;2022-10-28T06:52:56;15.50;99.90
19680;DHT22;9989;48.962;9.182;2022-10-28T06:55:23;15.50;99.90
19680;DHT22;9989;48.962;9.182;2022-10-28T06:57:48;15.50;99.90
19680;DHT22;9989;48.962;9.182;2022-10-28T07:00:14;15.60;99.90
19680;DHT22;9989;48.962;9.182;2022-10-28T07:02:40;15.60;99.90
19680;DHT22;9989;48.962;9.182;2022-10-28T07:05:07;15.60;99.90
19680;DHT22;9989;48.962;9.182;2022-10-28T07:07:33;15.70;99.90
19680;DHT22;9989;48.962;9.182;2022-10-28T07:10:02;15.70;99.90
19680;DHT22;9989;48.962;9.182;2022-10-28T07:12:28;15.80;99.90
19680;DHT22;9989;48.962;9.182;2022-10-28T07:14:53;15.90;99.90
19680;DHT22;9989;48.962;9.182;2022-10-28T07:17:19;16.00;99.90
19680;DHT22;9989;48.962;9.182;2022-10-28T07:19:44;16.10;99.90
19680;DHT22;9989;48.962;9.182;2022-10-28T07:22:10;16.20;99.90
19680;DHT22;9989;48.962;9.182;2022-10-28T07:24:36;16.30;99.90
19680;DHT22;9989;48.962;9.182;2022-10-28T07:27:01;16.50;99.90
19680;DHT22;9989;48.962;9.182;2022-10-28T07:29:28;16.60;99.90
19680;DHT22;9989;48.962;9.182;2022-10-28T07:31:54;16.70;99.90
19680;DHT22;9989;48.962;9.182;2022-10-28T07:34:20;16.80;99.90
19680;DHT22;9989;48.962;9.182;2022-10-28T07:36:49;17.00;99.90
19680;DHT22;9989;48.962;9.182;2022-10-28T07:39:15;17.80;99.90
19680;DHT22;9989;48.962;9.182;2022-10-28T07:41:41;18.90;99.90
19680;DHT22;9989;48.962;9.182;2022-10-28T07:44:06;19.90;99.90
19680;DHT22;9989;48.962;9.182;2022-10-28T07:46:32;21.10;99.90
19680;DHT22;9989;48.962;9.182;2022-10-28T07:48:58;22.20;99.90
19680;DHT22;9989;48.962;9.182;2022-10-28T07:51:24;22.60;99.90
19680;DHT22;9989;48.962;9.182;2022-10-28T07:53:49;22.60;99.90
19680;DHT22;9989;48.962;9.182;2022-10-28T07:56:15;22.30;99.90
19680;DHT22;9989;48.962;9.182;2022-10-28T07:58:42;21.90;99.90
19680;DHT22;9989;48.962;9.182;2022-10-28T08:01:10;21.40;99.90
19680;DHT22;9989;48.962;9.182;2022-10-28T08:03:36;20.90;99.90
19680;DHT22;9989;48.962;9.182;2022-10-28T08:06:05;20.40;99.90
19680;DHT22;9989;48.962;9.182;2022-10-28T08:08:31;20.10;99.90
19680;DHT22;9989;48.962;9.182;2022-10-28T08:10:57;19.80;99.90
19680;DHT22;9989;48.962;9.182;2022-10-28T08:13:22;19.50;99.90
19680;DHT22;9989;48.962;9.182;2022-10-28T08:15:53;19.30;99.90
19680;DHT22;9989;48.962;9.182;2022-10-28T08:18:20;19.00;99.90
19680;DHT22;9989;48.962;9.182;2022-10-28T08:20:46;18.90;99.90
19680;DHT22;9989;48.962;9.182;2022-10-28T08:23:11;18.80;99.90
19680;DHT22;9989;48.962;9.182;2022-10-28T08:25:37;18.70;99.90
19680;DHT22;9989;48.962;9.182;2022-10-28T08:28:05;18.70;99.90
19680;DHT22;9989;48.962;9.182;2022-10-28T08:30:30;18.70;99.90
19680;DHT22;9989;48.962;9.182;2022-10-28T08:32:56;18.60;99.90
19680;DHT22;9989;48.962;9.182;2022-10-28T08:35:22;18.70;99.90
19680;DHT22;9989;48.962;9.182;2022-10-28T08:37:51;18.80;99.90
19680;DHT22;9989;48.962;9.182;2022-10-28T08:40:18;18.80;99.90
19680;DHT22;9989;48.962;9.182;2022-10-28T08:42:51;19.00;99.90
19680;DHT22;9989;48.962;9.182;2022-10-28T08:51:04;19.80;99.90
19680;DHT22;9989;48.962;9.182;2022-10-28T08:54:01;19.80;99.90
19680;DHT22;9989;48.962;9.182;2022-10-28T08:56:38;19.80;99.90
19680;DHT22;9989;48.962;9.182;2022-10-28T08:59:12;19.80;99.90
19680;DHT22;9989;48.962;9.182;2022-10-28T09:01:50;19.90;99.90
19680;DHT22;9989;48.962;9.182;2022-10-28T09:04:39;19.90;99.90
19680;DHT22;9989;48.962;9.182;2022-10-28T09:07:21;20.10;99.90
19680;DHT22;9989;48.962;9.182;2022-10-28T09:09:49;20.50;99.90
19680;DHT22;9989;48.962;9.182;2022-10-28T09:12:37;21.30;99.90
19680;DHT22;9989;48.962;9.182;2022-10-28T09:15:31;21.90;99.90
19680;DHT22;9989;48.962;9.182;2022-10-28T09:18:21;22.10;99.90
19680;DHT22;9989;48.962;9.182;2022-10-28T09:21:00;22.30;99.90
19680;DHT22;9989;48.962;9.182;2022-10-28T09:23:33;22.20;99.90
19680;DHT22;9989;48.962;9.182;2022-10-28T09:31:32;21.40;99.90
19680;DHT22;9989;48.962;9.182;2022-10-28T09:37:07;20.90;99.90
19680;DHT22;9989;48.962;9.182;2022-10-28T09:39:42;20.70;99.90
19680;DHT22;9989;48.962;9.182;2022-10-28T09:42:14;20.50;99.90
19680;DHT22;9989;48.962;9.182;2022-10-28T09:44:59;20.60;99.90
19680;DHT22;9989;48.962;9.182;2022-10-28T09:47:31;20.80;99.90
19680;DHT22;9989;48.962;9.182;2022-10-28T09:50:00;21.60;99.90
19680;DHT22;9989;48.962;9.182;2022-10-28T09:52:35;22.90;99.90
19680;DHT22;9989;48.962;9.182;2022-10-28T09:55:11;24.00;99.90
19680;DHT22;9989;48.962;9.182;2022-10-28T09:57:39;24.40;99.90
19680;DHT22;9989;48.962;9.182;2022-10-28T10:00:05;24.50;99.90
19680;DHT22;9989;48.962;9.182;2022-10-28T10:02:32;24.60;99.90
19680;DHT22;9989;48.962;9.182;2022-10-28T10:04:59;24.70;99.40
19680;DHT22;9989;48.962;9.182;2022-10-28T10:07:42;25.00;99.00
19680;DHT22;9989;48.962;9.182;2022-10-28T10:10:22;25.10;98.30
19680;DHT22;9989;48.962;9.182;2022-10-28T10:12:50;25.30;96.30
19680;DHT22;9989;48.962;9.182;2022-10-28T10:17:52;27.40;93.40
19680;DHT22;9989;48.962;9.182;2022-10-28T10:20:20;28.60;90.30
19680;DHT22;9989;48.962;9.182;2022-10-28T10:22:47;29.30;83.10
19680;DHT22;9989;48.962;9.182;2022-10-28T10:27:47;28.80;78.40
19680;DHT22;9989;48.962;9.182;2022-10-28T10:30:19;28.20;78.70
19680;DHT22;9989;48.962;9.182;2022-10-28T10:32:46;27.40;79.50
19680;DHT22;9989;48.962;9.182;2022-10-28T10:37:42;25.80;84.60
19680;DHT22;9989;48.962;9.182;2022-10-28T10:40:23;25.20;88.60
19680;DHT22;9989;48.962;9.182;2022-10-28T10:42:49;24.60;90.40
19680;DHT22;9989;48.962;9.182;2022-10-28T10:45:20;24.20;91.70
19680;DHT22;9989;48.962;9.182;2022-10-28T10:47:45;24.00;93.10
19680;DHT22;9989;48.962;9.182;2022-10-28T10:50:29;23.80;93.80
19680;DHT22;9989;48.962;9.182;2022-10-28T10:52:58;23.80;94.60
19680;DHT22;9989;48.962;9.182;2022-10-28T10:55:35;23.90;95.30
19680;DHT22;9989;48.962;9.182;2022-10-28T10:58:02;24.40;94.40
19680;DHT22;9989;48.962;9.182;2022-10-28T11:00:36;24.60;93.40
19680;DHT22;9989;48.962;9.182;2022-10-28T11:03:04;24.60;93.30
19680;DHT22;9989;48.962;9.182;2022-10-28T11:05:31;24.50;93.20
19680;DHT22;9989;48.962;9.182;2022-10-28T11:07:59;24.20;93.70
19680;DHT22;9989;48.962;9.182;2022-10-28T11:10:31;24.00;94.20
19680;DHT22;9989;48.962;9.182;2022-10-28T11:13:23;23.70;94.90
19680;DHT22;9989;48.962;9.182;2022-10-28T11:16:23;23.40;95.70
19680;DHT22;9989;48.962;9.182;2022-10-28T11:18:52;23.30;97.70
19680;DHT22;9989;48.962;9.182;2022-10-28T11:21:41;23.40;98.40
19680;DHT22;9989;48.962;9.182;2022-10-28T11:24:49;23.40;98.80
19680;DHT22;9989;48.962;9.182;2022-10-28T11:30:05;23.40;98.70
19680;DHT22;9989;48.962;9.182;2022-10-28T11:32:50;23.40;97.70
19680;DHT22;9989;48.962;9.182;2022-10-28T11:43:57;22.60;99.90
19680;DHT22;9989;48.962;9.182;2022-10-28T11:55:02;22.10;99.90
19680;DHT22;9989;48.962;9.182;2022-10-28T12:20:02;23.30;99.90
19680;DHT22;9989;48.962;9.182;2022-10-28T12:23:12;23.80;99.90
19680;DHT22;9989;48.962;9.182;2022-10-28T12:25:44;25.50;99.90
19680;DHT22;9989;48.962;9.182;2022-10-28T12:28:31;28.00;96.20
19680;DHT22;9989;48.962;9.182;2022-10-28T12:30:58;30.70;89.30
19680;DHT22;9989;48.962;9.182;2022-10-28T12:33:39;31.80;77.30
19680;DHT22;9989;48.962;9.182;2022-10-28T12:38:39;31.80;69.50
19680;DHT22;9989;48.962;9.182;2022-10-28T12:41:16;31.50;68.50
19680;DHT22;9989;48.962;9.182;2022-10-28T12:44:01;31.30;68.90
19680;DHT22;9989;48.962;9.182;2022-10-28T12:46:46;31.40;67.40
19680;DHT22;9989;48.962;9.182;2022-10-28T12:49:35;32.10;66.10
19680;DHT22;9989;48.962;9.182;2022-10-28T12:52:54;34.00;61.70
19680;DHT22;9989;48.962;9.182;2022-10-28T12:57:39;38.50;50.90
19680;DHT22;9989;48.962;9.182;2022-10-28T13:03:07;41.30;44.70
19680;DHT22;9989;48.962;9.182;2022-10-28T13:05:43;42.50;41.80
19680;DHT22;9989;48.962;9.182;2022-10-28T13:08:33;43.40;39.90
19680;DHT22;9989;48.962;9.182;2022-10-28T13:27:14;46.50;33.90
19680;DHT22;9989;48.962;9.182;2022-10-28T13:29:41;46.30;33.70
19680;DHT22;9989;48.962;9.182;2022-10-28T13:32:37;45.70;33.80
19680;DHT22;9989;48.962;9.182;2022-10-28T13:37:45;45.30;33.80
19680;DHT22;9989;48.962;9.182;2022-10-28T13:42:55;45.40;33.80
19680;DHT22;9989;48.962;9.182;2022-10-28T13:45:53;45.20;33.80
19680;DHT22;9989;48.962;9.182;2022-10-28T13:59:02;43.30;35.30
19680;DHT22;9989;48.962;9.182;2022-10-28T14:01:46;41.90;36.80
19680;DHT22;9989;48.962;9.182;2022-10-28T14:04:30;40.30;38.90
19680;DHT22;9989;48.962;9.182;2022-10-28T14:07:18;38.70;40.80
19680;DHT22;9989;48.962;9.182;2022-10-28T14:09:47;37.20;43.10
19680;DHT22;9989;48.962;9.182;2022-10-28T14:12:20;35.80;45.00
19680;DHT22;9989;48.962;9.182;2022-10-28T14:15:01;34.70;46.90
19680;DHT22;9989;48.962;9.182;2022-10-28T14:17:38;33.70;48.80
19680;DHT22;9989;48.962;9.182;2022-10-28T14:20:18;32.60;50.90
19680;DHT22;9989;48.962;9.182;2022-10-28T14:22:46;31.60;52.70
19680;DHT22;9989;48.962;9.182;2022-10-28T14:44:29;27.50;66.20
19680;DHT22;9989;48.962;9.182;2022-10-28T14:47:40;27.20;67.50
19680;DHT22;9989;48.962;9.182;2022-10-28T14:53:06;26.70;69.70
19680;DHT22;9989;48.962;9.182;2022-10-28T14:55:36;26.50;70.30
19680;DHT22;9989;48.962;9.182;2022-10-28T14:58:23;26.30;70.90
19680;DHT22;9989;48.962;9.182;2022-10-28T15:03:37;25.90;72.10
19680;DHT22;9989;48.962;9.182;2022-10-28T15:08:56;25.70;74.20
19680;DHT22;9989;48.962;9.182;2022-10-28T15:11:26;25.60;74.70
19680;DHT22;9989;48.962;9.182;2022-10-28T15:13:52;25.50;75.80
19680;DHT22;9989;48.962;9.182;2022-10-28T15:16:20;25.40;76.60
19680;DHT22;9989;48.962;9.182;2022-10-28T15:18:51;25.40;77.00
19680;DHT22;9989;48.962;9.182;2022-10-28T15:21:19;25.40;77.40
19680;DHT22;9989;48.962;9.182;2022-10-28T15:23:58;25.30;77.50
19680;DHT22;9989;48.962;9.182;2022-10-28T15:26:23;25.20;78.30
19680;DHT22;9989;48.962;9.182;2022-10-28T15:28:49;25.10;78.70
19680;DHT22;9989;48.962;9.182;2022-10-28T15:31:15;25.00;79.10
19680;DHT22;9989;48.962;9.182;2022-10-28T15:33:42;24.90;79.80
19680;DHT22;9989;48.962;9.182;2022-10-28T15:36:21;24.80;79.10
19680;DHT22;9989;48.962;9.182;2022-10-28T15:39:03;24.70;79.50
19680;DHT22;9989;48.962;9.182;2022-10-28T15:43:59;24.60;80.20
19680;DHT22;9989;48.962;9.182;2022-10-28T15:46:25;24.60;81.20
19680;DHT22;9989;48.962;9.182;2022-10-28T15:48:52;24.40;82.00
19680;DHT22;9989;48.962;9.182;2022-10-28T15:51:19;24.30;83.50
19680;DHT22;9989;48.962;9.182;2022-10-28T15:53:45;24.10;85.20
19680;DHT22;9989;48.962;9.182;2022-10-28T15:56:30;24.10;87.00
19680;DHT22;9989;48.962;9.182;2022-10-28T16:01:30;23.70;89.90
19680;DHT22;9989;48.962;9.182;2022-10-28T16:03:59;23.60;90.80
19680;DHT22;9989;48.962;9.182;2022-10-28T16:06:33;23.40;91.10
19680;DHT22;9989;48.962;9.182;2022-10-28T16:11:48;23.20;91.50
19680;DHT22;9989;48.962;9.182;2022-10-28T16:17:07;22.90;92.50
19680;DHT22;9989;48.962;9.182;2022-10-28T16:19:37;22.80;93.30
19680;DHT22;9989;48.962;9.182;2022-10-28T16:22:04;22.70;94.00
19680;DHT22;9989;48.962;9.182;2022-10-28T16:24:30;22.60;94.60
19680;DHT22;9989;48.962;9.182;2022-10-28T16:29:47;22.30;95.60
19680;DHT22;9989;48.962;9.182;2022-10-28T16:32:14;22.30;96.20
19680;DHT22;9989;48.962;9.182;2022-10-28T16:34:40;22.10;96.70
19680;DHT22;9989;48.962;9.182;2022-10-28T16:37:33;22.00;97.20
19680;DHT22;9989;48.962;9.182;2022-10-28T16:39:58;21.90;97.80
19680;DHT22;9989;48.962;9.182;2022-10-28T16:42:24;21.90;98.10
19680;DHT22;9989;48.962;9.182;2022-10-28T16:44:50;21.70;98.70
19680;DHT22;9989;48.962;9.182;2022-10-28T16:47:18;21.70;99.10
19680;DHT22;9989;48.962;9.182;2022-10-28T16:49:45;21.60;99.80
19680;DHT22;9989;48.962;9.182;2022-10-28T16:52:22;21.50;99.90
19680;DHT22;9989;48.962;9.182;2022-10-28T16:54:48;21.40;99.90
19680;DHT22;9989;48.962;9.182;2022-10-28T16:57:15;21.40;99.90
19680;DHT22;9989;48.962;9.182;2022-10-28T16:59:41;21.30;99.90
19680;DHT22;9989;48.962;9.182;2022-10-28T17:02:31;21.10;99.90
19680;DHT22;9989;48.962;9.182;2022-10-28T17:05:09;21.10;99.90
19680;DHT22;9989;48.962;9.182;2022-10-28T17:07:40;21.00;99.90
19680;DHT22;9989;48.962;9.182;2022-10-28T17:10:05;20.90;99.90
19680;DHT22;9989;48.962;9.182;2022-10-28T17:12:32;20.80;99.90
19680;DHT22;9989;48.962;9.182;2022-10-28T17:14:57;20.70;99.90
19680;DHT22;9989;48.962;9.182;2022-10-28T17:17:23;20.60;99.90
19680;DHT22;9989;48.962;9.182;2022-10-28T17:19:48;20.60;99.90
19680;DHT22;9989;48.962;9.182;2022-10-28T17:22:14;20.50;99.90
19680;DHT22;9989;48.962;9.182;2022-10-28T17:24:39;20.40;99.90
19680;DHT22;9989;48.962;9.182;2022-10-28T17:27:05;20.30;99.90
19680;DHT22;9989;48.962;9.182;2022-10-28T17:29:31;20.20;99.90
19680;DHT22;9989;48.962;9.182;2022-10-28T17:31:56;20.10;99.90
19680;DHT22;9989;48.962;9.182;2022-10-28T17:34:22;20.00;99.90
19680;DHT22;9989;48.962;9.182;2022-10-28T17:36:48;20.00;99.90
19680;DHT22;9989;48.962;9.182;2022-10-28T17:39:13;19.90;99.90
19680;DHT22;9989;48.962;9.182;2022-10-28T17:41:39;19.90;99.90
19680;DHT22;9989;48.962;9.182;2022-10-28T17:44:04;19.80;99.90
19680;DHT22;9989;48.962;9.182;2022-10-28T17:46:30;19.70;99.90
19680;DHT22;9989;48.962;9.182;2022-10-28T17:48:56;19.70;99.90
19680;DHT22;9989;48.962;9.182;2022-10-28T17:51:21;19.60;99.90
19680;DHT22;9989;48.962;9.182;2022-10-28T17:53:53;19.50;99.90
19680;DHT22;9989;48.962;9.182;2022-10-28T17:56:19;19.50;99.90
19680;DHT22;9989;48.962;9.182;2022-10-28T17:58:44;19.40;99.90
19680;DHT22;9989;48.962;9.182;2022-10-28T18:01:10;19.40;99.90
19680;DHT22;9989;48.962;9.182;2022-10-28T18:03:36;19.40;99.90
19680;DHT22;9989;48.962;9.182;2022-10-28T18:06:04;19.30;99.90
19680;DHT22;9989;48.962;9.182;2022-10-28T18:08:35;19.30;99.90
19680;DHT22;9989;48.962;9.182;2022-10-28T18:11:03;19.20;99.90
19680;DHT22;9989;48.962;9.182;2022-10-28T18:13:30;19.20;99.90
19680;DHT22;9989;48.962;9.182;2022-10-28T18:16:01;19.10;99.90
19680;DHT22;9989;48.962;9.182;2022-10-28T18:18:27;19.00;99.90
19680;DHT22;9989;48.962;9.182;2022-10-28T18:20:54;19.00;99.90
19680;DHT22;9989;48.962;9.182;2022-10-28T18:23:21;19.00;99.90
19680;DHT22;9989;48.962;9.182;2022-10-28T18:25:59;18.90;99.90
19680;DHT22;9989;48.962;9.182;2022-10-28T18:28:26;18.90;99.90
19680;DHT22;9989;48.962;9.182;2022-10-28T18:30:52;18.90;99.90
19680;DHT22;9989;48.962;9.182;2022-10-28T18:33:17;18.90;99.90
19680;DHT22;9989;48.962;9.182;2022-10-28T18:35:43;18.90;99.90
19680;DHT22;9989;48.962;9.182;2022-10-28T18:38:09;18.90;99.90
19680;DHT22;9989;48.962;9.182;2022-10-28T18:40:34;18.80;99.90
19680;DHT22;9989;48.962;9.182;2022-10-28T18:43:00;18.80;99.90
19680;DHT22;9989;48.962;9.182;2022-10-28T18:45:27;18.80;99.90
19680;DHT22;9989;48.962;9.182;2022-10-28T18:47:52;18.80;99.90
19680;DHT22;9989;48.962;9.182;2022-10-28T18:50:18;18.80;99.90
19680;DHT22;9989;48.962;9.182;2022-10-28T18:52:43;18.80;99.90
19680;DHT22;9989;48.962;9.182;2022-10-28T18:55:09;18.80;99.90
19680;DHT22;9989;48.962;9.182;2022-10-28T18:57:34;18.70;99.90
19680;DHT22;9989;48.962;9.182;2022-10-28T19:00:00;18.70;99.90
19680;DHT22;9989;48.962;9.182;2022-10-28T19:02:28;18.70;99.90
19680;DHT22;9989;48.962;9.182;2022-10-28T19:04:54;18.60;99.90